Time;durP1;ratioP1;P1;durP2;ratioP2;P2;SDS_P1;SDS_P2;PMS_P1;PMS_P2;Temp;Humidity;BMP_temperature;BMP_pressure;BME280_temperature;BME280_humidity;BME280_pressure;Samples;Min_cycle;Max_cycle;Signal;HPM_P1;HPM_P2
2021/04/25 00:02:30;;;;;;;10.10;5.63;;;;;;;10.01;45.72;100833.53;10277810;28;20046;-68
2021/04/25 00:07:31;;;;;;;6.57;4.97;;;;;;;9.76;46.77;100792.69;10271888;28;20483;-68
2021/04/25 00:12:32;;;;;;;10.07;6.32;;;;;;;10.10;46.08;100851.53;10269844;28;20042;-69
2021/04/25 00:17:33;;;;;;;7.05;5.53;;;;;;;10.01;45.69;100830.88;10275527;28;20588;-68
2021/04/25 00:22:34;;;;;;;7.70;4.85;;;;;;;9.90;46.34;100840.44;10276260;28;20078;-67
2021/04/25 00:27:36;;;;;;;8.65;5.90;;;;;;;10.01;46.19;100846.84;10273428;28;20069;-68
2021/04/25 00:32:37;;;;;;;13.30;7.75;;;;;;;9.97;46.36;100848.88;10268363;28;20042;-69
2021/04/25 00:37:38;;;;;;;7.68;4.75;;;;;;;9.80;46.21;100823.41;10270076;28;20047;-68
2021/04/25 00:42:39;;;;;;;7.72;4.90;;;;;;;9.96;45.76;100835.69;10265542;28;20047;-67
2021/04/25 00:47:42;;;;;;;8.57;5.32;;;;;;;9.84;46.76;100826.72;10269230;28;20137;-70
2021/04/25 00:52:46;;;;;;;8.32;4.85;;;;;;;9.87;46.88;100831.84;10269152;28;20054;-68
2021/04/25 00:57:47;;;;;;;10.23;5.13;;;;;;;9.66;46.89;100810.22;10274301;28;20050;-70
2021/04/25 01:02:48;;;;;;;8.00;5.70;;;;;;;9.64;46.44;100834.25;10278183;28;20054;-69
2021/04/25 01:07:49;;;;;;;7.38;5.45;;;;;;;9.63;47.42;100832.53;10268974;28;20043;-69
2021/04/25 01:12:51;;;;;;;7.90;6.07;;;;;;;9.51;46.96;100828.06;10285163;28;20050;-68
2021/04/25 01:17:52;;;;;;;7.70;5.53;;;;;;;9.45;47.93;100833.78;10276233;28;20059;-68
2021/04/25 01:22:53;;;;;;;8.60;6.00;;;;;;;9.43;47.75;100835.66;10266053;28;20141;-70
2021/04/25 01:27:54;;;;;;;8.35;5.85;;;;;;;9.26;48.17;100826.16;10273092;28;20055;-68
2021/04/25 01:32:55;;;;;;;8.00;5.75;;;;;;;9.23;48.39;100837.00;10274167;28;20394;-68
2021/04/25 01:37:57;;;;;;;8.10;5.90;;;;;;;9.26;47.72;100836.78;10273928;28;20277;-70
2021/04/25 01:43:00;;;;;;;8.57;5.65;;;;;;;9.01;48.82;100836.59;10268564;28;20051;-68
2021/04/25 01:48:03;;;;;;;8.13;5.38;;;;;;;9.09;47.90;100837.91;10275846;28;20058;-68
2021/04/25 01:53:06;;;;;;;8.75;4.88;;;;;;;9.02;48.56;100837.44;10266271;28;20043;-68
2021/04/25 01:58:09;;;;;;;7.25;5.68;;;;;;;8.90;48.49;100835.56;10260350;28;20443;-69
2021/04/25 02:03:12;;;;;;;6.50;5.47;;;;;;;8.76;48.51;100824.03;10266652;28;20118;-67
2021/04/25 02:08:14;;;;;;;7.18;5.07;;;;;;;8.23;49.52;100828.22;10271362;28;20047;-69
2021/04/25 02:13:16;;;;;;;8.98;5.20;;;;;;;8.44;49.26;100821.63;10262081;28;20077;-68
2021/04/25 02:18:17;;;;;;;9.15;5.38;;;;;;;8.43;48.77;100806.59;10264783;28;20509;-69
2021/04/25 02:23:18;;;;;;;10.98;4.63;;;;;;;8.31;48.90;100825.94;10266369;28;20050;-68
2021/04/25 02:28:19;;;;;;;6.63;3.92;;;;;;;7.93;49.80;100837.09;10267918;28;20063;-68
2021/04/25 02:33:20;;;;;;;5.25;3.80;;;;;;;7.88;49.92;100818.81;10271116;28;20055;-70
2021/04/25 02:38:20;;;;;;;8.18;4.10;;;;;;;8.03;48.70;100838.25;10271587;28;20110;-70
2021/04/25 02:43:21;;;;;;;7.78;3.70;;;;;;;7.78;49.53;100836.22;10267130;28;20498;-68
2021/04/25 02:48:22;;;;;;;6.40;3.80;;;;;;;8.03;48.91;100853.28;10262015;28;20055;-68
2021/04/25 02:53:24;;;;;;;4.97;3.80;;;;;;;7.64;49.78;100855.59;10267188;28;20412;-69
2021/04/25 02:58:25;;;;;;;6.03;3.90;;;;;;;7.66;48.96;100840.44;10259528;28;20051;-69
2021/04/25 03:03:26;;;;;;;5.47;3.92;;;;;;;7.57;49.38;100843.66;10270824;28;20506;-69
2021/04/25 03:08:26;;;;;;;7.68;3.67;;;;;;;7.63;49.21;100851.22;10258508;28;20107;-68
2021/04/25 03:13:27;;;;;;;6.20;4.00;;;;;;;7.53;49.57;100840.31;10276604;28;20273;-68
2021/04/25 03:18:29;;;;;;;5.75;2.58;;;;;;;7.51;48.49;100847.50;10303462;23;20107;-71
2021/04/25 03:23:30;;;;;;;7.43;3.08;;;;;;;7.42;49.16;100843.56;10299578;28;20551;-70
2021/04/25 03:28:31;;;;;;;5.40;3.08;;;;;;;7.22;48.92;100841.22;10328124;28;20101;-71
2021/04/25 03:33:32;;;;;;;5.85;3.03;;;;;;;6.94;49.35;100848.09;10319121;28;20051;-72
2021/04/25 03:38:33;;;;;;;5.40;2.55;;;;;;;7.16;49.04;100852.16;10342494;28;20132;-71
2021/04/25 03:43:34;;;;;;;4.97;2.55;;;;;;;7.20;49.21;100848.41;10329878;28;20109;-71
2021/04/25 03:48:35;;;;;;;5.18;2.30;;;;;;;6.93;49.42;100833.13;10344931;28;20042;-72
2021/04/25 03:53:37;;;;;;;4.65;2.67;;;;;;;6.95;49.59;100847.16;10315896;28;20523;-71
2021/04/25 03:58:37;;;;;;;4.25;2.40;;;;;;;7.08;49.17;100863.19;10303165;28;20091;-70
2021/04/25 04:03:38;;;;;;;3.95;3.55;;;;;;;7.12;49.27;100850.66;10295440;28;20535;-71
2021/04/25 04:08:39;;;;;;;4.18;2.50;;;;;;;7.17;49.03;100844.13;10294368;28;20051;-71
2021/04/25 04:13:42;;;;;;;5.03;2.80;;;;;;;7.07;49.29;100859.69;10304212;28;20058;-71
2021/04/25 04:18:44;;;;;;;4.82;2.80;;;;;;;7.14;49.02;100854.88;10303579;28;20059;-71
2021/04/25 04:23:45;;;;;;;5.30;2.42;;;;;;;7.22;48.79;100862.41;10291740;28;20606;-71
2021/04/25 04:28:47;;;;;;;3.80;2.55;;;;;;;7.22;48.50;100867.69;10296720;28;20483;-71
2021/04/25 04:33:48;;;;;;;4.05;2.25;;;;;;;6.91;49.53;100864.13;10298951;28;20069;-72
2021/04/25 04:38:50;;;;;;;3.10;1.88;;;;;;;6.98;49.79;100870.81;10298452;28;20077;-71
2021/04/25 04:43:51;;;;;;;4.15;2.13;;;;;;;7.00;49.19;100879.50;10304291;28;20058;-71
2021/04/25 04:48:53;;;;;;;5.47;1.92;;;;;;;7.03;49.27;100878.47;10310607;28;20421;-71
2021/04/25 04:53:54;;;;;;;4.70;2.72;;;;;;;7.07;49.76;100875.56;10298912;28;20047;-72
2021/04/25 04:58:55;;;;;;;2.70;1.98;;;;;;;7.10;50.04;100885.16;10321029;28;20050;-72
2021/04/25 05:03:56;;;;;;;5.18;1.70;;;;;;;7.19;49.12;100879.34;10342436;28;20054;-72
2021/04/25 05:08:57;;;;;;;3.70;2.10;;;;;;;7.34;48.70;100887.34;10310769;28;20046;-72
2021/04/25 05:13:58;;;;;;;4.00;2.40;;;;;;;7.30;48.95;100870.78;10305037;28;20069;-71
2021/04/25 05:18:59;;;;;;;5.47;1.90;;;;;;;7.12;49.24;100890.34;10312407;28;20042;-73
2021/04/25 05:24:00;;;;;;;5.03;2.30;;;;;;;7.30;49.17;100899.06;10301748;28;20042;-71
2021/04/25 05:29:01;;;;;;;4.13;2.15;;;;;;;7.25;48.57;100899.28;10311631;28;20046;-70
2021/04/25 05:34:02;;;;;;;3.80;1.92;;;;;;;7.27;49.03;100915.97;10303605;28;20594;-72
2021/04/25 05:39:05;;;;;;;4.03;2.35;;;;;;;7.28;49.53;100922.13;10309607;28;20116;-70
2021/04/25 05:44:06;;;;;;;5.07;2.25;;;;;;;7.52;48.67;100927.81;10314579;28;20065;-71
2021/04/25 05:49:07;;;;;;;8.15;2.38;;;;;;;7.47;48.94;100921.94;10307970;28;20110;-72
2021/04/25 05:54:08;;;;;;;6.00;2.72;;;;;;;7.56;48.85;100934.66;10346907;28;20058;-73
2021/04/25 05:59:09;;;;;;;6.10;3.25;;;;;;;7.66;48.77;100935.00;10298977;28;20046;-72
2021/04/25 06:04:10;;;;;;;6.55;3.25;;;;;;;7.69;49.19;100938.31;10298377;28;20049;-71
2021/04/25 06:09:11;;;;;;;4.50;2.67;;;;;;;8.00;48.17;100949.81;10323387;28;20051;-71
2021/04/25 06:14:12;;;;;;;4.60;2.65;;;;;;;7.84;48.71;100948.97;10334303;28;20126;-71
2021/04/25 06:19:13;;;;;;;3.05;2.75;;;;;;;7.96;48.52;100953.56;10326358;28;20055;-71
2021/04/25 06:24:14;;;;;;;4.90;2.65;;;;;;;8.10;48.30;100948.28;10271778;28;20066;-71
2021/04/25 06:29:15;;;;;;;4.97;2.83;;;;;;;8.08;47.95;100952.84;10266522;28;20061;-71
2021/04/25 06:34:16;;;;;;;5.45;2.22;;;;;;;8.31;48.68;100959.41;10268018;28;20547;-71
2021/04/25 06:39:17;;;;;;;7.70;2.92;;;;;;;8.38;48.14;100964.38;10273804;28;20585;-68
2021/04/25 06:44:18;;;;;;;6.15;2.45;;;;;;;8.68;47.54;100964.34;10266131;28;20058;-72
2021/04/25 06:49:19;;;;;;;4.57;2.58;;;;;;;8.88;46.78;100968.41;10272161;28;20330;-70
2021/04/25 06:54:20;;;;;;;4.05;2.55;;;;;;;8.81;47.08;100967.97;10265219;28;20054;-73
2021/04/25 06:59:21;;;;;;;10.20;4.00;;;;;;;8.74;47.82;100968.44;10268453;28;20196;-72
2021/04/25 07:04:22;;;;;;;5.95;3.05;;;;;;;8.95;47.52;100972.41;10271778;28;20046;-71
2021/04/25 07:09:23;;;;;;;6.68;3.28;;;;;;;9.55;46.23;100975.75;10263180;28;20537;-69
2021/04/25 07:14:24;;;;;;;7.28;3.22;;;;;;;9.73;45.88;100977.19;10266049;28;20429;-70
2021/04/25 07:19:25;;;;;;;8.00;3.20;;;;;;;9.72;46.05;100985.25;10266255;28;20650;-68
2021/04/25 07:24:26;;;;;;;4.28;2.47;;;;;;;9.88;51.97;100975.31;10262163;28;20587;-69
2021/04/25 07:29:28;;;;;;;4.88;3.08;;;;;;;10.50;45.92;100976.53;10263393;28;20055;-70
2021/04/25 07:34:29;;;;;;;4.85;2.95;;;;;;;10.71;44.52;100968.88;10263148;28;20166;-70
2021/04/25 07:39:37;;;;;;;6.68;3.40;;;;;;;10.71;44.36;100981.34;10265507;28;20074;-71
2021/04/25 07:44:41;;;;;;;7.03;3.38;;;;;;;10.73;44.10;100972.31;10272977;28;20066;-69
2021/04/25 07:49:42;;;;;;;7.57;4.20;;;;;;;10.86;44.27;100966.97;10264868;28;20505;-69
2021/04/25 07:54:43;;;;;;;6.15;3.92;;;;;;;11.06;44.22;100972.69;10265522;28;20042;-70
2021/04/25 07:59:44;;;;;;;6.50;4.07;;;;;;;11.27;43.78;100970.28;10272639;28;20090;-72
2021/04/25 08:04:45;;;;;;;6.45;3.65;;;;;;;11.64;42.43;100975.63;10270352;28;20054;-71
2021/04/25 08:09:46;;;;;;;8.55;3.60;;;;;;;11.82;42.21;100966.25;10268859;28;20061;-72
2021/04/25 08:14:47;;;;;;;5.65;3.13;;;;;;;12.15;41.82;100966.53;10268856;28;20098;-69
2021/04/25 08:19:48;;;;;;;7.80;4.13;;;;;;;12.27;41.99;100976.28;10265897;28;20061;-69
2021/04/25 08:24:49;;;;;;;5.25;3.05;;;;;;;12.42;41.87;100958.25;10270835;28;20417;-70
2021/04/25 08:29:50;;;;;;;5.57;3.33;;;;;;;12.41;40.93;100966.38;10272492;28;20412;-70
2021/04/25 08:34:51;;;;;;;5.90;3.50;;;;;;;12.62;40.43;100970.03;10266174;28;20563;-69
2021/04/25 08:39:52;;;;;;;5.18;3.03;;;;;;;12.85;40.51;100975.41;10270621;28;20118;-68
2021/04/25 08:44:54;;;;;;;6.57;3.80;;;;;;;12.59;41.12;100970.28;10279625;28;20105;-70
2021/04/25 08:50:03;;;;;;;7.47;4.00;;;;;;;13.13;39.78;100970.56;10295246;28;20051;-71
2021/04/25 08:55:06;;;;;;;5.32;4.07;;;;;;;13.24;40.35;100970.53;10275554;28;20188;-69
2021/04/25 09:00:08;;;;;;;9.70;4.20;;;;;;;13.44;39.56;100972.47;10276062;28;20047;-70
2021/04/25 09:05:10;;;;;;;8.40;4.00;;;;;;;13.81;38.63;100963.28;10285304;28;20121;-68
2021/04/25 09:10:11;;;;;;;6.13;3.30;;;;;;;14.20;38.31;100954.69;10289665;28;20051;-70
2021/04/25 09:15:12;;;;;;;4.47;3.25;;;;;;;13.93;38.94;100961.38;10286848;28;20113;-69
2021/04/25 09:20:13;;;;;;;5.90;3.25;;;;;;;13.94;38.56;100968.44;10272952;28;20540;-71
2021/04/25 09:25:17;;;;;;;6.28;3.10;;;;;;;14.53;36.75;100961.66;10275129;28;20121;-70
2021/04/25 09:30:25;;;;;;;4.88;3.00;;;;;;;15.19;35.49;100950.59;10296890;23;20058;-68
2021/04/25 09:35:27;;;;;;;5.88;3.40;;;;;;;15.51;34.82;100954.88;10287793;28;20082;-68
2021/04/25 09:40:28;;;;;;;6.03;3.17;;;;;;;15.53;34.41;100946.69;10252211;28;21451;-68
2021/04/25 09:45:43;;;;;;;7.07;3.90;;;;;;;15.88;34.22;100934.59;10252444;28;20077;-69
2021/04/25 09:50:43;;;;;;;5.43;3.40;;;;;;;15.43;34.08;100930.56;10251118;28;20146;-67
2021/04/25 09:55:55;;;;;;;5.45;3.40;;;;;;;15.26;34.02;100929.41;10250149;28;20545;-68
2021/04/25 10:00:57;;;;;;;4.65;2.97;;;;;;;16.03;33.59;100927.81;10250311;28;20572;-70
2021/04/25 10:06:00;;;;;;;5.45;3.05;;;;;;;16.04;32.90;100928.66;10245972;28;20420;-68
2021/04/25 10:11:05;;;;;;;5.07;3.80;;;;;;;16.40;32.56;100932.41;10253238;28;20380;-69
2021/04/25 10:16:06;;;;;;;8.18;4.22;;;;;;;17.01;31.22;100934.78;10249516;28;20051;-67
2021/04/25 10:21:08;;;;;;;7.35;4.13;;;;;;;18.48;30.14;100931.81;10244114;28;20062;-68
2021/04/25 10:26:11;;;;;;;7.25;5.22;;;;;;;23.00;24.49;100920.75;10243174;28;20125;-68
2021/04/25 10:31:14;;;;;;;12.10;10.88;;;;;;;24.26;21.29;100921.28;10246713;28;20181;-68
2021/04/25 10:36:15;;;;;;;;;;;;;;;22.42;23.67;100916.84;10247321;28;20259;-67
2021/04/25 10:41:24;;;;;;;8.25;6.10;;;;;;;20.07;26.70;100913.13;10248180;28;19926;-68
2021/04/25 10:46:26;;;;;;;5.05;3.53;;;;;;;19.38;27.36;100913.38;10246483;28;20323;-67
2021/04/25 10:51:41;;;;;;;8.48;3.65;;;;;;;21.26;25.68;100915.16;10250830;28;20073;-67
2021/04/25 10:56:42;;;;;;;4.80;3.20;;;;;;;25.21;21.54;100913.44;10251214;28;20101;-68
2021/04/25 11:01:47;;;;;;;5.93;3.33;;;;;;;28.05;17.68;100895.22;10251333;28;20066;-68
2021/04/25 11:06:48;;;;;;;4.65;2.80;;;;;;;27.61;17.47;100883.31;10250405;28;20061;-69
2021/04/25 11:11:49;;;;;;;4.00;2.63;;;;;;;26.29;19.10;100892.66;10249412;28;20069;-68
2021/04/25 11:16:50;;;;;;;6.13;3.17;;;;;;;27.12;18.49;100886.53;10250857;28;20043;-67
2021/04/25 11:21:54;;;;;;;5.30;2.80;;;;;;;29.66;16.16;100887.84;10249087;28;20717;-67
2021/04/25 11:26:58;;;;;;;5.97;3.35;;;;;;;32.47;13.91;100884.66;10249794;28;20064;-68
2021/04/25 11:32:01;;;;;;;4.88;2.58;;;;;;;30.97;14.39;100870.25;10252312;28;20184;-68
2021/04/25 11:37:21;;;;;;;4.15;2.58;;;;;;;29.51;15.70;100871.81;10261469;28;20057;-68
2021/04/25 11:42:32;;;;;;;4.07;2.50;;;;;;;26.60;17.82;100872.00;10262661;28;20050;-68
2021/04/25 11:47:33;;;;;;;3.75;2.50;;;;;;;24.21;20.42;100873.97;10259354;28;20093;-67
2021/04/25 11:52:37;;;;;;;;;;;;;;;23.53;21.23;100877.94;10256911;28;20429;-69
2021/04/25 11:57:40;;;;;;;4.20;2.45;;;;;;;22.72;22.09;100869.91;10256351;28;19921;-67
2021/04/25 12:02:44;;;;;;;4.72;2.40;;;;;;;21.96;23.33;100853.72;10255446;28;20098;-69
2021/04/25 12:07:55;;;;;;;4.55;2.50;;;;;;;21.67;23.46;100860.75;10270747;28;20507;-67
2021/04/25 12:13:19;;;;;;;3.55;2.22;;;;;;;21.49;23.81;100852.91;10255237;28;20125;-68
2021/04/25 12:18:30;;;;;;;3.72;2.67;;;;;;;21.91;22.99;100850.72;10256550;28;20055;-68
2021/04/25 12:23:34;;;;;;;4.70;2.78;;;;;;;21.68;23.03;100857.88;10260288;28;20692;-68
2021/04/25 12:28:38;;;;;;;4.85;2.78;;;;;;;21.37;23.20;100852.47;10259056;28;20497;-67
2021/04/25 12:33:47;;;;;;;3.65;2.22;;;;;;;20.52;25.05;100848.66;10256075;28;20501;-67
2021/04/25 12:38:54;;;;;;;4.32;2.60;;;;;;;20.72;23.80;100851.84;10254705;28;20267;-68
2021/04/25 12:43:55;;;;;;;3.40;2.13;;;;;;;20.44;24.32;100833.28;10254547;28;20070;-70
2021/04/25 12:49:04;;;;;;;3.38;2.25;;;;;;;20.36;24.49;100851.44;10254166;28;20626;-67
2021/04/25 12:54:11;;;;;;;5.38;2.75;;;;;;;20.48;24.70;100848.16;10255032;28;20045;-67
2021/04/25 12:59:14;;;;;;;4.20;2.63;;;;;;;20.01;24.09;100840.84;10265125;28;20058;-67
2021/04/25 13:04:30;;;;;;;7.23;2.47;;;;;;;19.56;25.02;100829.53;10254404;28;20082;-67
2021/04/25 13:09:31;;;;;;;3.38;2.42;;;;;;;19.88;24.27;100824.31;10252510;28;20121;-67
2021/04/25 13:14:32;;;;;;;5.32;2.78;;;;;;;19.16;24.50;100814.16;10254475;28;20629;-68
2021/04/25 13:19:34;;;;;;;5.28;2.30;;;;;;;19.14;24.64;100824.25;10251852;28;20477;-69
2021/04/25 13:24:35;;;;;;;5.13;3.40;;;;;;;19.20;25.17;100828.97;10252284;28;20105;-69
2021/04/25 13:29:36;;;;;;;9.65;6.10;;;;;;;19.15;25.10;100810.59;10252402;28;20395;-68
2021/04/25 13:34:37;;;;;;;6.18;5.53;;;;;;;18.64;26.12;100813.28;10250268;28;20053;-68
2021/04/25 13:39:39;;;;;;;4.63;3.53;;;;;;;18.70;25.78;100812.63;10253936;28;20539;-68
2021/04/25 13:44:40;;;;;;;3.92;3.17;;;;;;;18.19;26.10;100798.25;10251520;28;20132;-68
2021/04/25 13:49:41;;;;;;;5.18;4.03;;;;;;;17.85;26.86;100794.50;10239742;28;20205;-68
2021/04/25 13:54:42;;;;;;;9.73;6.47;;;;;;;18.49;30.46;100798.72;10243100;28;20130;-68
2021/04/25 13:59:43;;;;;;;4.82;2.80;;;;;;;18.12;26.33;100783.72;10236200;28;20105;-68
2021/04/25 14:04:44;;;;;;;4.75;2.88;;;;;;;17.69;27.21;100797.06;10248800;28;20046;-68
2021/04/25 14:09:44;;;;;;;4.55;3.35;;;;;;;17.69;27.08;100774.69;10251117;28;20066;-69
2021/04/25 14:14:45;;;;;;;8.77;6.03;;;;;;;17.66;27.73;100790.13;10250110;28;20050;-68
2021/04/25 14:19:46;;;;;;;5.78;3.20;;;;;;;17.71;27.40;100783.44;10248779;28;20421;-68
2021/04/25 14:24:48;;;;;;;4.25;3.67;;;;;;;17.54;27.40;100780.63;10245269;28;20177;-68
2021/04/25 14:29:49;;;;;;;6.85;3.35;;;;;;;17.18;27.19;100775.28;10247452;28;20177;-68
2021/04/25 14:34:51;;;;;;;9.57;7.40;;;;;;;17.10;27.15;100786.81;10249781;28;20509;-67
2021/04/25 14:39:51;;;;;;;4.60;3.85;;;;;;;16.67;27.97;100753.38;10248293;28;20137;-73
2021/04/25 14:44:52;;;;;;;4.13;3.50;;;;;;;16.67;28.27;100782.13;10245964;28;20046;-68
2021/04/25 14:49:53;;;;;;;5.82;3.53;;;;;;;16.63;28.26;100756.53;10247767;28;20069;-67
2021/04/25 14:54:54;;;;;;;9.20;5.28;;;;;;;16.49;27.90;100772.16;10247240;28;20223;-68
2021/04/25 14:59:55;;;;;;;6.05;4.25;;;;;;;16.42;28.22;100769.25;10247272;28;20061;-68
2021/04/25 15:04:56;;;;;;;5.55;3.60;;;;;;;16.37;28.26;100782.25;10250381;28;20074;-68
2021/04/25 15:09:59;;;;;;;4.50;3.75;;;;;;;15.92;28.75;100758.00;10253318;28;20101;-68
2021/04/25 15:15:01;;;;;;;5.25;4.35;;;;;;;16.03;28.95;100765.84;10250653;28;20071;-67
2021/04/25 15:20:03;;;;;;;5.65;4.10;;;;;;;15.87;29.45;100761.13;10249934;28;20113;-67
2021/04/25 15:25:08;;;;;;;5.03;4.07;;;;;;;15.72;29.65;100753.47;10258316;28;20055;-68
2021/04/25 15:30:11;;;;;;;5.85;3.92;;;;;;;15.86;29.84;100767.47;10261082;28;20046;-68
2021/04/25 15:35:13;;;;;;;5.82;3.55;;;;;;;15.86;29.64;100765.63;10276309;28;20054;-68
2021/04/25 15:40:16;;;;;;;7.13;3.25;;;;;;;15.84;29.41;100769.47;10257900;28;20057;-67
2021/04/25 15:45:18;;;;;;;4.57;3.20;;;;;;;15.54;29.19;100750.69;10256563;28;20133;-71
2021/04/25 15:50:19;;;;;;;5.13;3.20;;;;;;;15.45;29.87;100743.50;10255995;28;20061;-69
2021/04/25 15:55:20;;;;;;;3.22;2.90;;;;;;;15.57;30.67;100754.94;10252980;28;20129;-68
2021/04/25 16:00:21;;;;;;;4.40;2.80;;;;;;;15.50;30.09;100754.66;10254948;28;20133;-69
2021/04/25 16:05:23;;;;;;;4.93;3.13;;;;;;;15.38;29.58;100751.25;10258655;28;20058;-69
2021/04/25 16:10:26;;;;;;;3.97;2.35;;;;;;;15.41;29.86;100754.66;10257541;28;20148;-69
2021/04/25 16:15:27;;;;;;;6.40;3.00;;;;;;;15.13;29.13;100742.00;10254579;28;20098;-67
2021/04/25 16:20:29;;;;;;;5.18;2.70;;;;;;;15.01;28.86;100732.38;10254984;28;20706;-67
2021/04/25 16:25:30;;;;;;;4.85;2.10;;;;;;;14.97;28.71;100731.81;10254074;28;20058;-69
2021/04/25 16:30:31;;;;;;;3.20;1.95;;;;;;;14.98;28.83;100754.09;10254293;28;20109;-70
2021/04/25 16:35:32;;;;;;;3.83;2.13;;;;;;;14.81;28.93;100745.75;10254715;28;20548;-69
2021/04/25 16:40:33;;;;;;;6.28;3.78;;;;;;;14.72;28.72;100730.50;10251410;28;20529;-68
2021/04/25 16:45:34;;;;;;;4.93;2.35;;;;;;;14.66;28.92;100737.25;10250621;28;20066;-67
2021/04/25 16:50:36;;;;;;;2.58;1.80;;;;;;;14.55;28.67;100736.53;10266331;28;20073;-70
2021/04/25 16:55:44;;;;;;;4.43;1.85;;;;;;;14.57;28.90;100730.03;10253472;28;20051;-67
2021/04/25 17:00:45;;;;;;;2.28;1.90;;;;;;;14.56;29.20;100736.41;10251099;28;20051;-68
2021/04/25 17:05:46;;;;;;;3.72;1.92;;;;;;;14.33;29.18;100743.78;10253095;28;20488;-68
2021/04/25 17:10:47;;;;;;;2.88;1.73;;;;;;;14.14;29.73;100731.16;10253160;28;20058;-68
2021/04/25 17:15:48;;;;;;;3.50;1.83;;;;;;;14.10;30.64;100744.00;10252079;28;20081;-68
2021/04/25 17:20:50;;;;;;;4.32;2.20;;;;;;;13.93;30.00;100732.09;10249221;28;20054;-68
2021/04/25 17:25:51;;;;;;;4.45;2.30;;;;;;;13.85;30.13;100733.72;10250162;28;20073;-68
2021/04/25 17:30:52;;;;;;;2.80;2.03;;;;;;;13.84;29.67;100740.91;10244861;28;20050;-68
2021/04/25 17:35:53;;;;;;;3.80;2.42;;;;;;;13.72;29.87;100745.50;10250208;28;20073;-68
2021/04/25 17:40:54;;;;;;;3.75;2.33;;;;;;;13.71;30.23;100745.63;10255261;28;20580;-69
2021/04/25 17:45:55;;;;;;;4.05;2.17;;;;;;;13.60;29.96;100738.50;10250406;28;20055;-67
2021/04/25 17:50:56;;;;;;;4.03;2.10;;;;;;;13.46;29.85;100734.34;10252696;28;20188;-67
2021/04/25 17:55:57;;;;;;;4.35;2.53;;;;;;;13.52;29.50;100765.06;10249101;28;20058;-68
2021/04/25 18:00:59;;;;;;;2.70;2.20;;;;;;;13.30;30.02;100750.81;10248892;28;20144;-70
2021/04/25 18:05:59;;;;;;;4.68;2.97;;;;;;;13.02;30.15;100745.09;10248308;28;20054;-70
2021/04/25 18:11:01;;;;;;;4.47;2.08;;;;;;;12.98;31.05;100735.63;10249235;28;20413;-68
2021/04/25 18:16:02;;;;;;;3.80;2.45;;;;;;;13.04;30.97;100763.66;10249267;28;20133;-69
2021/04/25 18:21:04;;;;;;;5.72;2.42;;;;;;;13.28;33.93;100758.09;10251532;28;20125;-70
2021/04/25 18:26:06;;;;;;;4.15;2.33;;;;;;;13.18;32.12;100757.16;10246819;28;20722;-67
2021/04/25 18:31:08;;;;;;;4.13;2.67;;;;;;;13.08;32.16;100757.94;10252751;28;20085;-68
2021/04/25 18:36:09;;;;;;;3.72;2.10;;;;;;;12.90;32.85;100754.13;10253459;28;20051;-67
2021/04/25 18:41:09;;;;;;;3.63;1.98;;;;;;;12.82;32.38;100751.22;10249751;28;20050;-67
2021/04/25 18:46:13;;;;;;;3.78;2.35;;;;;;;12.67;32.58;100750.66;10251251;28;20062;-67
2021/04/25 18:51:14;;;;;;;3.38;2.40;;;;;;;12.63;32.42;100774.09;10248757;28;20062;-67
2021/04/25 18:56:16;;;;;;;3.55;2.40;;;;;;;12.33;32.96;100762.25;10251116;28;20401;-68
2021/04/25 19:01:21;;;;;;;4.20;2.40;;;;;;;12.11;33.95;100767.59;10254449;28;20057;-68
2021/04/25 19:06:22;;;;;;;2.50;2.30;;;;;;;11.99;34.10;100764.94;10255121;28;20059;-68
2021/04/25 19:11:23;;;;;;;4.68;2.58;;;;;;;12.00;33.93;100785.28;10261641;28;20050;-68
2021/04/25 19:16:24;;;;;;;5.63;3.13;;;;;;;11.93;34.28;100784.06;10258747;28;20054;-69
2021/04/25 19:21:25;;;;;;;4.38;2.38;;;;;;;11.86;34.17;100780.16;10261667;28;20668;-68
2021/04/25 19:26:26;;;;;;;7.32;3.90;;;;;;;11.71;34.91;100798.19;10256595;28;20139;-68
2021/04/25 19:31:27;;;;;;;4.47;3.08;;;;;;;11.49;34.93;100766.97;10258427;28;20110;-69
2021/04/25 19:36:29;;;;;;;3.72;2.72;;;;;;;11.46;35.53;100789.38;10252698;28;20065;-67
2021/04/25 19:41:30;;;;;;;5.35;2.38;;;;;;;11.32;35.86;100771.78;10248749;28;20133;-68
2021/04/25 19:46:33;;;;;;;4.20;2.50;;;;;;;11.26;35.84;100777.56;10240519;28;20070;-68
2021/04/25 19:51:34;;;;;;;5.53;2.22;;;;;;;11.06;36.09;100762.22;10251748;28;20063;-69
2021/04/25 19:56:35;;;;;;;4.10;2.60;;;;;;;11.01;36.06;100764.38;10258675;28;20730;-69
2021/04/25 20:01:36;;;;;;;2.47;2.28;;;;;;;11.07;36.28;100793.22;10253672;28;20082;-68
2021/04/25 20:06:37;;;;;;;3.75;2.80;;;;;;;11.04;36.02;100801.44;10255846;28;20129;-68
2021/04/25 20:11:38;;;;;;;3.95;2.55;;;;;;;10.82;36.16;100784.38;10254284;28;20169;-69
2021/04/25 20:16:39;;;;;;;7.80;5.45;;;;;;;10.69;36.38;100770.25;10256156;28;20079;-69
2021/04/25 20:21:41;;;;;;;5.07;3.20;;;;;;;10.70;37.01;100791.44;10249343;28;20154;-68
2021/04/25 20:26:45;;;;;;;3.88;2.97;;;;;;;10.74;37.02;100786.75;10252740;28;20062;-67
2021/04/25 20:31:49;;;;;;;9.00;4.10;;;;;;;10.64;37.51;100778.56;10289011;28;20097;-67
2021/04/25 20:36:50;;;;;;;6.93;2.92;;;;;;;10.57;37.45;100774.66;10291624;28;20654;-68
2021/04/25 20:41:51;;;;;;;3.72;2.50;;;;;;;10.31;37.46;100731.25;10264504;28;20059;-68
2021/04/25 20:46:52;;;;;;;3.28;2.78;;;;;;;10.55;37.81;100772.13;10267618;28;20050;-68
2021/04/25 20:51:55;;;;;;;3.67;2.45;;;;;;;10.48;38.00;100773.50;10257177;28;20709;-68
2021/04/25 20:56:56;;;;;;;7.18;3.17;;;;;;;10.19;38.35;100760.44;10272348;28;20075;-69
2021/04/25 21:01:57;;;;;;;5.63;2.72;;;;;;;10.22;37.97;100776.19;10267144;28;20417;-68
2021/04/25 21:06:58;;;;;;;7.50;2.45;;;;;;;10.13;38.38;100755.53;10275179;28;20524;-69
2021/04/25 21:11:59;;;;;;;8.85;2.90;;;;;;;10.09;38.91;100778.03;10271126;28;20054;-71
2021/04/25 21:17:00;;;;;;;4.60;3.10;;;;;;;10.06;38.96;100773.75;10272651;28;20061;-69
2021/04/25 21:22:01;;;;;;;6.20;3.00;;;;;;;9.83;39.01;100758.53;10269578;28;20082;-68
2021/04/25 21:27:03;;;;;;;6.82;2.90;;;;;;;9.96;39.05;100770.03;10268651;28;20054;-67
2021/04/25 21:32:05;;;;;;;5.30;2.78;;;;;;;9.90;39.55;100765.97;10278580;28;20117;-68
2021/04/25 21:37:06;;;;;;;4.22;2.80;;;;;;;9.83;40.13;100775.38;10266855;23;20540;-70
2021/04/25 21:42:08;;;;;;;5.95;3.40;;;;;;;9.90;39.85;100771.31;10300566;28;20654;-71
2021/04/25 21:47:09;;;;;;;4.88;2.80;;;;;;;9.83;39.50;100754.09;10274231;28;20143;-71
2021/04/25 21:52:10;;;;;;;5.53;3.22;;;;;;;9.78;39.37;100750.88;10262747;28;20127;-70
2021/04/25 21:57:11;;;;;;;4.97;2.95;;;;;;;9.83;40.12;100763.84;10255860;28;20446;-71
2021/04/25 22:02:12;;;;;;;4.78;3.10;;;;;;;9.72;40.57;100767.25;10261040;28;20066;-71
2021/04/25 22:07:13;;;;;;;3.75;2.95;;;;;;;9.75;40.25;100766.22;10275216;28;20050;-70
2021/04/25 22:12:14;;;;;;;4.15;2.72;;;;;;;9.73;40.26;100748.56;10269154;28;20055;-71
2021/04/25 22:17:15;;;;;;;4.00;2.55;;;;;;;9.71;40.40;100762.91;10263924;28;20055;-71
2021/04/25 22:22:16;;;;;;;5.22;2.33;;;;;;;9.61;40.05;100765.34;10263928;28;20529;-70
2021/04/25 22:27:17;;;;;;;5.43;2.83;;;;;;;9.58;40.35;100757.59;10274377;28;20152;-70
2021/04/25 22:32:18;;;;;;;5.72;2.95;;;;;;;9.41;40.92;100753.41;10257922;28;20627;-71
2021/04/25 22:37:19;;;;;;;6.53;2.95;;;;;;;9.35;41.24;100759.13;10270897;28;20062;-71
2021/04/25 22:42:20;;;;;;;4.45;2.67;;;;;;;9.27;40.86;100749.03;10261365;28;20133;-71
2021/04/25 22:47:21;;;;;;;7.60;3.47;;;;;;;9.18;41.84;100752.28;10261666;28;20054;-71
2021/04/25 22:52:23;;;;;;;6.18;2.78;;;;;;;9.16;41.97;100749.75;10267397;28;20064;-71
2021/04/25 22:57:24;;;;;;;6.63;2.83;;;;;;;9.04;41.02;100734.63;10261620;28;20108;-71
2021/04/25 23:02:25;;;;;;;4.43;3.05;;;;;;;9.03;41.66;100744.38;10260208;28;20063;-70
2021/04/25 23:07:27;;;;;;;4.57;2.92;;;;;;;9.02;41.47;100733.88;10280749;28;20050;-72
2021/04/25 23:12:28;;;;;;;6.55;2.65;;;;;;;8.99;41.43;100726.09;10296415;28;20163;-71